createdAt,value
2023-04-10T00:01:56.509Z,12.00
2023-04-10T00:03:58.989Z,10.67
2023-04-10T00:06:01.087Z,10.00
2023-04-10T00:08:04.750Z,10.00
2023-04-10T00:10:07.261Z,8.67
2023-04-10T00:12:09.178Z,10.00
2023-04-10T00:14:10.700Z,5.00
2023-04-10T00:16:12.411Z,11.00
2023-04-10T00:18:14.536Z,8.67
2023-04-10T00:20:16.476Z,12.67
2023-04-10T00:22:18.514Z,12.00
2023-04-10T00:24:21.698Z,17.00
2023-04-10T00:26:23.331Z,10.00
2023-04-10T00:28:24.946Z,9.00
2023-04-10T00:30:27.075Z,6.33
2023-04-10T00:32:28.648Z,9.67
2023-04-10T00:34:30.287Z,10.67
2023-04-10T00:36:31.877Z,7.33
2023-04-10T00:38:33.863Z,8.33
2023-04-10T00:40:36.837Z,6.00
2023-04-10T00:42:38.774Z,6.67
2023-04-10T00:44:41.941Z,6.00
2023-04-10T00:46:43.740Z,6.00
2023-04-10T00:48:45.489Z,9.67
2023-04-10T00:50:47.229Z,6.00
2023-04-10T00:52:50.066Z,1.67
2023-04-10T00:54:52.273Z,7.67
2023-04-10T00:56:59.185Z,9.00
2023-04-10T00:59:01.149Z,10.00
2023-04-10T01:01:03.877Z,7.33
2023-04-10T01:03:06.374Z,6.00
2023-04-10T01:05:09.066Z,4.00
2023-04-10T01:07:19.585Z,9.00
2023-04-10T01:09:33.126Z,12.00
2023-04-10T01:11:49.206Z,5.00
2023-04-10T01:14:02.726Z,8.00
2023-04-10T01:16:09.525Z,7.00
2023-04-10T01:18:19.529Z,8.33
2023-04-10T01:20:23.630Z,8.00
2023-04-10T01:22:28.771Z,4.00
2023-04-10T01:24:50.554Z,5.67
2023-04-10T01:27:04.429Z,2.00
2023-04-10T01:29:09.994Z,11.33
2023-04-10T01:31:17.387Z,6.00
2023-04-10T01:33:21.368Z,5.33
2023-04-10T01:35:24.341Z,6.00
2023-04-10T01:37:29.324Z,8.00
2023-04-10T01:39:35.455Z,7.33
2023-04-10T01:41:41.510Z,6.67
2023-04-10T01:43:43.588Z,6.67
2023-04-10T01:45:52.655Z,6.00
2023-04-10T01:47:55.542Z,4.00
2023-04-10T01:49:58.581Z,6.00
2023-04-10T01:52:00.869Z,12.00
2023-04-10T01:54:05.155Z,14.75
2023-04-10T01:56:09.177Z,16.50
2023-04-10T01:58:11.273Z,10.25
2023-04-10T02:00:13.953Z,7.50
2023-04-10T02:02:17.507Z,8.25
2023-04-10T02:04:19.665Z,16.00
2023-04-10T02:06:29.546Z,17.75
2023-04-10T02:08:36.492Z,0.00
2023-04-10T02:10:43.856Z,6.00
2023-04-10T02:12:48.881Z,8.00
2023-04-10T02:14:53.473Z,5.33
2023-04-10T02:16:56.624Z,6.67
2023-04-10T02:19:02.478Z,6.67
2023-04-10T02:21:05.140Z,6.67
2023-04-10T02:23:09.130Z,5.67
2023-04-10T02:25:11.472Z,4.00
2023-04-10T02:27:13.111Z,4.67
2023-04-10T02:29:14.957Z,3.33
2023-04-10T02:31:16.854Z,4.00
2023-04-10T02:33:19.066Z,4.67
2023-04-10T02:35:23.483Z,5.00
2023-04-10T02:37:25.481Z,4.00
2023-04-10T02:39:27.278Z,4.00
2023-04-10T02:41:28.835Z,4.33
2023-04-10T02:43:30.666Z,4.00
2023-04-10T02:45:32.192Z,5.00
2023-04-10T02:47:34.337Z,5.00
2023-04-10T02:49:36.105Z,5.00
2023-04-10T02:51:39.350Z,4.67
2023-04-10T02:53:41.038Z,2.00
2023-04-10T02:55:42.680Z,2.00
2023-04-10T02:57:44.453Z,4.00
2023-04-10T02:59:46.426Z,5.00
2023-04-10T03:01:48.419Z,1.33
2023-04-10T03:03:50.363Z,4.00
2023-04-10T03:05:51.961Z,4.00
2023-04-10T03:07:55.175Z,1.67
2023-04-10T03:09:57.040Z,2.00
2023-04-10T03:11:58.887Z,2.00
2023-04-10T03:14:00.577Z,2.00
2023-04-10T03:16:02.453Z,2.00
2023-04-10T03:18:04.792Z,4.00
2023-04-10T03:20:08.217Z,5.00
2023-04-10T03:22:09.824Z,5.33
2023-04-10T03:24:13.249Z,6.67
2023-04-10T03:26:18.336Z,6.00
2023-04-10T03:28:19.952Z,5.67
2023-04-10T03:30:22.085Z,4.00
2023-04-10T03:32:23.788Z,5.00
2023-04-10T03:34:25.356Z,6.00
2023-04-10T03:36:26.927Z,5.33
2023-04-10T03:38:28.477Z,5.00
2023-04-10T03:40:31.580Z,2.00
2023-04-10T03:42:33.429Z,1.00
2023-04-10T03:44:35.032Z,4.33
2023-04-10T03:46:36.851Z,2.00
2023-04-10T03:48:38.700Z,3.33
2023-04-10T03:50:40.449Z,4.67
2023-04-10T03:52:42.294Z,6.00
2023-04-10T03:54:44.104Z,4.33
2023-04-10T03:56:47.187Z,4.00
2023-04-10T03:58:48.836Z,5.00
2023-04-10T04:00:50.615Z,3.33
2023-04-10T04:02:52.647Z,2.00
2023-04-10T04:04:54.862Z,4.33
2023-04-10T04:06:58.164Z,2.00
2023-04-10T04:09:00.066Z,4.00
2023-04-10T04:11:02.027Z,4.67
2023-04-10T04:13:04.980Z,2.67
2023-04-10T04:15:08.107Z,4.67
2023-04-10T04:17:09.981Z,4.33
2023-04-10T04:19:11.623Z,4.67
2023-04-10T04:21:13.251Z,5.00
2023-04-10T04:23:14.932Z,1.00
2023-04-10T04:25:17.219Z,3.67
2023-04-10T04:27:18.826Z,5.33
2023-04-10T04:29:22.000Z,7.67
2023-04-10T04:31:23.884Z,5.00
2023-04-10T04:33:25.927Z,4.33
2023-04-10T04:35:27.797Z,5.67
2023-04-10T04:37:29.592Z,4.33
2023-04-10T04:39:31.813Z,5.33
2023-04-10T04:41:33.700Z,5.33
2023-04-10T04:43:35.320Z,4.00
2023-04-10T04:45:38.390Z,3.33
2023-04-10T04:47:39.978Z,2.67
2023-04-10T04:49:41.646Z,4.00
2023-04-10T04:51:44.473Z,3.33
2023-04-10T04:53:47.414Z,3.33
2023-04-10T04:55:49.211Z,1.00
2023-04-10T04:57:51.468Z,2.00
2023-04-10T04:59:53.362Z,0.00
2023-04-10T05:01:56.791Z,1.00
2023-04-10T05:04:01.098Z,2.00
2023-04-10T05:06:05.189Z,1.00
2023-04-10T05:08:06.842Z,1.00
2023-04-10T05:10:10.706Z,1.00
2023-04-10T05:12:17.933Z,0.67
2023-04-10T05:14:21.298Z,1.00
2023-04-10T05:16:22.899Z,1.00
2023-04-10T05:18:26.169Z,1.00
2023-04-10T05:20:28.123Z,1.00
2023-04-10T05:22:29.710Z,1.00
2023-04-10T05:24:33.737Z,1.00
2023-04-10T05:26:35.474Z,2.00
2023-04-10T05:28:37.337Z,1.00
2023-04-10T05:30:39.312Z,1.00
2023-04-10T05:32:41.434Z,1.00
2023-04-10T05:34:44.660Z,1.00
2023-04-10T05:36:46.320Z,2.00
2023-04-10T05:38:47.949Z,0.67
2023-04-10T05:40:49.487Z,0.33
2023-04-10T05:42:51.059Z,1.00
2023-04-10T05:44:53.258Z,1.00
2023-04-10T05:46:55.608Z,2.00
2023-04-10T05:48:57.468Z,1.00
2023-04-10T05:51:00.485Z,1.00
2023-04-10T05:53:02.337Z,1.00
2023-04-10T05:55:08.037Z,1.00
2023-04-10T05:57:10.399Z,1.00
2023-04-10T05:59:11.943Z,2.00
2023-04-10T06:01:13.836Z,2.00
2023-04-10T06:03:15.698Z,0.67
2023-04-10T06:05:17.629Z,1.00
2023-04-10T06:07:24.896Z,2.67
2023-04-10T06:09:26.897Z,2.00
2023-04-10T06:11:28.711Z,2.33
2023-04-10T06:13:30.768Z,2.00
2023-04-10T06:15:32.385Z,2.00
2023-04-10T06:17:33.963Z,2.00
2023-04-10T06:19:35.606Z,2.00
2023-04-10T06:21:37.374Z,3.00
2023-04-10T06:23:40.626Z,3.00
2023-04-10T06:25:42.264Z,5.33
2023-04-10T06:27:44.058Z,5.00
2023-04-10T06:29:45.892Z,3.00
2023-04-10T06:31:47.547Z,3.00
2023-04-10T06:33:49.719Z,3.00
2023-04-10T06:35:51.899Z,3.00
2023-04-10T06:37:53.694Z,3.00
2023-04-10T06:40:04.097Z,12.33
2023-04-10T06:42:05.965Z,5.33
2023-04-10T06:44:07.812Z,2.00
2023-04-10T06:46:09.758Z,2.00
2023-04-10T06:48:11.855Z,1.67
2023-04-10T06:50:13.480Z,2.67
2023-04-10T06:52:15.571Z,3.00
2023-04-10T06:54:17.110Z,3.33
2023-04-10T06:56:20.214Z,2.00
2023-04-10T06:58:21.929Z,2.33
2023-04-10T07:00:24.013Z,2.00
2023-04-10T07:02:25.976Z,3.00
2023-04-10T07:04:27.781Z,4.00
2023-04-10T07:06:29.770Z,4.00
2023-04-10T07:08:32.032Z,3.50
2023-04-10T07:10:33.611Z,2.25
2023-04-10T07:12:36.665Z,2.75
2023-04-10T07:14:38.541Z,3.00
2023-04-10T07:16:40.245Z,2.00
2023-04-10T07:18:41.938Z,4.00
2023-04-10T07:20:44.107Z,2.00
2023-04-10T07:22:45.957Z,3.75
2023-04-10T07:24:47.765Z,3.25
2023-04-10T07:26:49.813Z,3.00
2023-04-10T07:28:53.179Z,5.33
2023-04-10T07:30:55.217Z,8.00
2023-04-10T07:32:57.336Z,4.25
2023-04-10T07:34:59.287Z,6.50
2023-04-10T07:37:00.929Z,3.75
2023-04-10T07:39:02.535Z,3.00
2023-04-10T07:41:05.126Z,4.00
2023-04-10T07:43:07.628Z,3.00
2023-04-10T07:45:12.359Z,4.25
2023-04-10T07:47:14.567Z,4.75
2023-04-10T07:49:16.268Z,5.00
2023-04-10T07:51:17.890Z,6.00
2023-04-10T07:53:19.519Z,3.50
2023-04-10T07:55:21.741Z,3.75
2023-04-10T07:57:23.545Z,4.75
2023-04-10T07:59:25.187Z,6.00
2023-04-10T08:01:30.533Z,5.00
2023-04-10T08:03:38.723Z,5.00
2023-04-10T08:05:40.400Z,4.25
2023-04-10T08:07:42.296Z,4.00
2023-04-10T08:09:43.892Z,4.00
2023-04-10T08:11:45.537Z,4.00
2023-04-10T08:13:47.547Z,3.75
2023-04-10T08:15:49.632Z,2.75
2023-04-10T08:17:52.583Z,3.75
2023-04-10T08:19:54.399Z,5.75
2023-04-10T08:21:55.966Z,4.00
2023-04-10T08:23:59.557Z,3.25
2023-04-10T08:26:01.627Z,2.00
2023-04-10T08:28:03.262Z,3.25
2023-04-10T08:30:06.407Z,4.75
2023-04-10T08:32:10.897Z,3.50
2023-04-10T08:34:14.230Z,3.00
2023-04-10T08:36:19.601Z,4.00
2023-04-10T08:38:22.348Z,4.00
2023-04-10T08:40:24.094Z,7.00
2023-04-10T08:42:25.712Z,5.75
2023-04-10T08:44:27.735Z,4.00
2023-04-10T08:46:34.078Z,4.00
2023-04-10T08:48:39.141Z,3.25
2023-04-10T08:50:46.709Z,4.25
2023-04-10T08:52:51.841Z,3.50
2023-04-10T08:54:55.336Z,3.00
2023-04-10T08:56:57.202Z,3.75
2023-04-10T08:58:59.765Z,4.00
2023-04-10T09:01:02.361Z,4.00
2023-04-10T09:03:04.593Z,3.25
2023-04-10T09:05:10.505Z,5.25
2023-04-10T09:07:13.533Z,4.50
2023-04-10T09:09:15.453Z,2.75
2023-04-10T09:11:17.262Z,3.00
2023-04-10T09:13:35.957Z,4.00
2023-04-10T09:15:55.998Z,4.00
2023-04-10T09:18:00.030Z,4.00
2023-04-10T09:20:02.115Z,4.25
2023-04-10T09:22:04.177Z,3.00
2023-04-10T09:24:08.122Z,4.00
2023-04-10T09:26:23.951Z,2.00
2023-04-10T09:28:25.546Z,3.60
2023-04-10T09:30:33.570Z,4.40
2023-04-10T09:32:41.043Z,4.20
2023-04-10T09:34:53.366Z,3.80
2023-04-10T09:36:56.641Z,4.40
2023-04-10T09:38:58.759Z,5.00
2023-04-10T09:41:08.762Z,4.20
2023-04-10T09:43:21.683Z,4.00
2023-04-10T09:45:23.407Z,4.00
2023-04-10T09:47:25.598Z,5.40
2023-04-10T09:49:27.851Z,4.40
2023-04-10T09:51:31.605Z,5.60
2023-04-10T09:53:48.816Z,4.60
2023-04-10T09:55:50.720Z,4.40
2023-04-10T09:57:55.915Z,4.60
2023-04-10T09:59:58.980Z,5.20
2023-04-10T10:02:01.139Z,4.80
2023-04-10T10:04:04.489Z,4.80
2023-04-10T10:06:07.887Z,6.40
2023-04-10T10:08:11.206Z,4.00
2023-04-10T10:10:13.065Z,5.20
2023-04-10T10:12:19.642Z,3.80
2023-04-10T10:14:26.069Z,4.60
2023-04-10T10:16:34.327Z,4.00
2023-04-10T10:18:43.972Z,4.20
2023-04-10T10:20:46.727Z,6.00
2023-04-10T10:22:50.710Z,5.40
2023-04-10T10:24:54.614Z,4.00
2023-04-10T10:26:59.699Z,5.00
2023-04-10T10:29:03.877Z,3.60
2023-04-10T10:31:07.641Z,4.60
2023-04-10T10:33:12.758Z,1.00
2023-04-10T10:35:14.797Z,4.00
2023-04-10T10:37:18.467Z,7.20
2023-04-10T10:39:32.245Z,5.80
2023-04-10T10:41:42.921Z,5.20
2023-04-10T10:43:52.602Z,4.00
2023-04-10T10:46:02.361Z,5.40
2023-04-10T10:48:06.091Z,5.20
2023-04-10T10:50:08.801Z,5.60
2023-04-10T10:52:10.436Z,4.00
2023-04-10T10:54:42.265Z,6.60
2023-04-10T10:56:49.109Z,5.50
2023-04-10T10:58:52.580Z,4.00
2023-04-10T11:01:19.056Z,6.00
2023-04-10T11:03:31.649Z,6.75
2023-04-10T11:05:49.619Z,5.00
2023-04-10T11:08:08.171Z,5.25
2023-04-10T11:10:09.926Z,5.25
2023-04-10T11:12:11.731Z,6.50
2023-04-10T11:14:19.313Z,6.00
2023-04-10T11:16:21.540Z,5.50
2023-04-10T11:19:06.406Z,5.00
2023-04-10T11:21:17.460Z,6.25
2023-04-10T11:23:19.391Z,6.50
2023-04-10T11:25:20.979Z,4.00
2023-04-10T11:27:40.235Z,5.25
2023-04-10T11:29:41.897Z,6.00
2023-04-10T11:31:44.457Z,3.75
2023-04-10T11:33:47.357Z,5.75
2023-04-10T11:35:49.198Z,6.75
2023-04-10T11:37:52.791Z,7.25
2023-04-10T11:40:04.393Z,5.00
2023-04-10T11:42:06.240Z,6.25
2023-04-10T11:44:10.818Z,7.00
2023-04-10T11:46:12.861Z,8.25
2023-04-10T11:48:15.359Z,8.50
2023-04-10T11:50:17.147Z,8.75
2023-04-10T11:52:25.162Z,11.75
2023-04-10T11:54:29.227Z,9.25
2023-04-10T11:56:31.118Z,8.75
2023-04-10T11:58:33.380Z,10.00
2023-04-10T12:00:34.808Z,10.00
2023-04-10T12:02:50.503Z,10.00
2023-04-10T12:04:58.811Z,9.00
2023-04-10T12:07:00.634Z,8.75
2023-04-10T12:09:13.482Z,10.00
2023-04-10T12:11:18.961Z,9.25
2023-04-10T12:13:25.275Z,9.25
2023-04-10T12:15:28.066Z,8.75
2023-04-10T12:17:30.125Z,8.00
2023-04-10T12:19:33.145Z,9.50
2023-04-10T12:21:36.726Z,8.25
2023-04-10T12:23:39.485Z,8.00
2023-04-10T12:25:42.137Z,7.75
2023-04-10T12:27:49.319Z,9.25
2023-04-10T12:29:52.152Z,7.25
2023-04-10T12:31:53.758Z,7.00
2023-04-10T12:33:55.519Z,6.75
2023-04-10T12:35:57.117Z,8.00
2023-04-10T12:37:58.813Z,8.50
2023-04-10T12:40:06.096Z,4.00
2023-04-10T12:42:11.988Z,7.00
2023-04-10T12:44:15.358Z,8.25
2023-04-10T12:46:24.955Z,8.00
2023-04-10T12:48:26.582Z,7.25
2023-04-10T12:50:28.580Z,7.50
2023-04-10T12:52:30.430Z,9.25
2023-04-10T12:54:33.597Z,5.50
2023-04-10T12:56:41.440Z,9.00
2023-04-10T12:58:43.095Z,8.00
2023-04-10T13:00:46.316Z,8.50
2023-04-10T13:02:49.114Z,6.00
2023-04-10T13:04:51.449Z,7.75
2023-04-10T13:06:53.361Z,7.00
2023-04-10T13:08:55.414Z,7.00
2023-04-10T13:10:57.482Z,5.00
2023-04-10T13:12:59.540Z,6.75
2023-04-10T13:15:01.921Z,4.00
2023-04-10T13:17:04.884Z,7.00
2023-04-10T13:19:06.689Z,7.00
2023-04-10T13:21:08.812Z,6.00
2023-04-10T13:23:10.668Z,7.75
2023-04-10T13:25:13.030Z,6.00
2023-04-10T13:27:14.790Z,6.75
2023-04-10T13:29:16.436Z,6.75
2023-04-10T13:31:18.729Z,6.75
2023-04-10T13:33:21.837Z,6.50
2023-04-10T13:35:23.917Z,7.00
2023-04-10T13:37:25.510Z,7.25
2023-04-10T13:39:30.777Z,6.00
2023-04-10T13:41:32.366Z,7.25
2023-04-10T13:43:34.471Z,5.00
2023-04-10T13:45:36.205Z,7.00
2023-04-10T13:47:37.915Z,6.50
2023-04-10T13:49:41.038Z,6.75
2023-04-10T13:51:42.794Z,5.50
2023-04-10T13:53:44.440Z,7.25
2023-04-10T13:55:46.502Z,5.75
2023-04-10T13:57:48.300Z,7.00
2023-04-10T13:59:49.925Z,2.00
2023-04-10T14:01:51.612Z,6.00
2023-04-10T14:03:53.371Z,5.50
2023-04-10T14:05:56.585Z,6.25
2023-04-10T14:07:58.218Z,8.25
2023-04-10T14:09:59.877Z,5.50
2023-04-10T14:12:01.711Z,8.00
2023-04-10T14:14:03.410Z,7.00
2023-04-10T14:16:05.550Z,5.00
2023-04-10T14:18:07.521Z,8.00
2023-04-10T14:20:10.082Z,7.00
2023-04-10T14:22:13.451Z,5.00
2023-04-10T14:24:15.264Z,5.00
2023-04-10T14:26:17.454Z,7.75
2023-04-10T14:28:19.409Z,6.50
2023-04-10T14:30:21.202Z,6.00
2023-04-10T14:32:23.319Z,6.50
2023-04-10T14:34:24.954Z,6.00
2023-04-10T14:36:26.537Z,6.00
2023-04-10T14:38:29.829Z,7.25
2023-04-10T14:40:31.600Z,6.00
2023-04-10T14:42:33.491Z,5.00
2023-04-10T14:44:35.314Z,6.00
2023-04-10T14:46:37.227Z,5.75
2023-04-10T14:48:38.894Z,7.50
2023-04-10T14:50:40.535Z,6.00
2023-04-10T14:52:42.415Z,7.00
2023-04-10T14:54:45.500Z,8.00
2023-04-10T14:56:47.302Z,7.50
2023-04-10T14:58:49.164Z,10.50
2023-04-10T15:00:51.081Z,8.75
2023-04-10T15:02:52.956Z,10.50
2023-04-10T15:04:54.928Z,10.50
2023-04-10T15:06:56.506Z,11.25
2023-04-10T15:08:58.279Z,13.60
2023-04-10T15:11:01.456Z,13.80
2023-04-10T15:13:03.227Z,13.20
2023-04-10T15:15:05.330Z,15.20
2023-04-10T15:17:07.165Z,13.20
2023-04-10T15:19:08.844Z,12.00
2023-04-10T15:21:10.454Z,16.00
2023-04-10T15:23:12.140Z,16.00
2023-04-10T15:25:13.748Z,15.40
2023-04-10T15:27:18.826Z,15.80
2023-04-10T15:29:20.434Z,16.40
2023-04-10T15:31:22.975Z,16.60
2023-04-10T15:33:24.571Z,17.40
2023-04-10T15:35:26.462Z,15.40
2023-04-10T15:37:28.279Z,14.20
2023-04-10T15:39:29.870Z,17.00
2023-04-10T15:41:32.376Z,15.00
2023-04-10T15:43:35.524Z,16.40
2023-04-10T15:45:38.753Z,15.00
2023-04-10T15:47:40.457Z,17.80
2023-04-10T15:49:42.153Z,15.40
2023-04-10T15:51:43.859Z,13.80
2023-04-10T15:53:45.717Z,16.40
2023-04-10T15:55:47.573Z,14.20
2023-04-10T15:57:50.658Z,14.20
2023-04-10T15:59:53.754Z,12.80
2023-04-10T16:01:56.151Z,12.80
2023-04-10T16:03:58.109Z,14.00
2023-04-10T16:06:00.048Z,11.80
2023-04-10T16:08:02.679Z,12.80
2023-04-10T16:10:04.716Z,12.40
2023-04-10T16:12:06.690Z,12.40
2023-04-10T16:14:08.289Z,14.00
2023-04-10T16:16:15.689Z,14.60
2023-04-10T16:18:17.664Z,17.40
2023-04-10T16:20:19.826Z,14.00
2023-04-10T16:22:21.632Z,14.80
2023-04-10T16:24:23.525Z,14.40
2023-04-10T16:26:25.409Z,15.40
2023-04-10T16:28:27.342Z,16.00
2023-04-10T16:30:28.954Z,11.40
2023-04-10T16:32:32.819Z,15.80
2023-04-10T16:34:34.878Z,16.00
2023-04-10T16:36:37.519Z,14.20
2023-04-10T16:38:39.316Z,18.40
2023-04-10T16:40:41.206Z,12.60
2023-04-10T16:42:44.254Z,13.80
2023-04-10T16:44:46.371Z,15.20
2023-04-10T16:46:48.548Z,13.60
2023-04-10T16:48:51.695Z,13.60
2023-04-10T16:50:53.273Z,13.00
2023-04-10T16:52:55.243Z,15.20
2023-04-10T16:54:57.084Z,18.50
2023-04-10T16:56:58.873Z,16.50
2023-04-10T16:59:00.456Z,12.60
2023-04-10T17:01:13.424Z,13.50
2023-04-10T17:03:15.490Z,14.20
2023-04-10T17:05:18.785Z,15.50
2023-04-10T17:07:20.342Z,15.00
2023-04-10T17:09:22.394Z,13.75
2023-04-10T17:11:24.314Z,14.00
2023-04-10T17:13:25.932Z,13.50
2023-04-10T17:15:27.831Z,13.00
2023-04-10T17:17:29.515Z,12.25
2023-04-10T17:19:31.737Z,14.00
2023-04-10T17:21:35.424Z,17.25
2023-04-10T17:23:36.986Z,16.25
2023-04-10T17:25:39.387Z,16.00
2023-04-10T17:27:41.076Z,16.75
2023-04-10T17:29:42.780Z,17.25
2023-04-10T17:31:44.958Z,14.50
2023-04-10T17:33:46.511Z,13.25
2023-04-10T17:35:49.695Z,13.75
2023-04-10T17:37:53.249Z,13.00
2023-04-10T17:39:54.804Z,18.75
2023-04-10T17:41:56.468Z,14.00
2023-04-10T17:43:58.335Z,13.25
2023-04-10T17:46:00.141Z,13.75
2023-04-10T17:48:01.830Z,15.25
2023-04-10T17:50:04.489Z,13.75
2023-04-10T17:52:06.160Z,12.00
2023-04-10T17:54:10.042Z,13.50
2023-04-10T17:56:18.013Z,10.50
2023-04-10T17:58:19.584Z,11.50
2023-04-10T18:00:22.108Z,12.00
2023-04-10T18:02:23.777Z,13.00
2023-04-10T18:04:25.562Z,12.25
2023-04-10T18:06:27.171Z,12.50
2023-04-10T18:08:29.023Z,11.25
2023-04-10T18:10:32.366Z,13.50
2023-04-10T18:12:34.419Z,12.25
2023-04-10T18:14:36.277Z,11.00
2023-04-10T18:16:38.075Z,14.00
2023-04-10T18:18:40.083Z,13.50
2023-04-10T18:20:41.888Z,12.50
2023-04-10T18:22:43.707Z,13.50
2023-04-10T18:24:46.472Z,14.50
2023-04-10T18:26:50.245Z,16.50
2023-04-10T18:28:52.083Z,14.75
2023-04-10T18:30:53.881Z,14.25
2023-04-10T18:32:55.589Z,16.25
2023-04-10T18:34:57.463Z,15.50
2023-04-10T18:36:59.374Z,14.50
2023-04-10T18:39:00.920Z,13.00
2023-04-10T18:41:02.508Z,15.00
2023-04-10T18:43:06.267Z,15.00
2023-04-10T18:45:08.929Z,18.00
2023-04-10T18:47:10.761Z,18.75
2023-04-10T18:49:12.613Z,17.50
2023-04-10T18:51:14.439Z,17.75
2023-04-10T18:53:16.227Z,16.00
2023-04-10T18:55:18.259Z,13.75
2023-04-10T18:57:20.032Z,15.50
2023-04-10T18:59:23.557Z,20.25
2023-04-10T19:01:25.493Z,11.00
2023-04-10T19:03:27.363Z,17.25
2023-04-10T19:05:30.828Z,17.75
2023-04-10T19:07:32.824Z,20.75
2023-04-10T19:09:34.740Z,14.50
2023-04-10T19:11:36.321Z,21.00
2023-04-10T19:13:38.717Z,16.75
2023-04-10T19:15:44.656Z,19.75
2023-04-10T19:17:46.362Z,20.00
2023-04-10T19:19:47.955Z,20.75
2023-04-10T19:21:49.599Z,17.75
2023-04-10T19:23:51.210Z,20.50
2023-04-10T19:25:53.394Z,16.25
2023-04-10T19:27:55.089Z,21.25
2023-04-10T19:29:56.733Z,18.75
2023-04-10T19:31:59.616Z,19.75
2023-04-10T19:34:01.389Z,20.50
2023-04-10T19:36:03.346Z,17.50
2023-04-10T19:38:05.166Z,17.00
2023-04-10T19:40:08.008Z,19.75
2023-04-10T19:42:09.571Z,17.75
2023-04-10T19:44:11.372Z,17.25
2023-04-10T19:46:16.799Z,15.75
2023-04-10T19:48:20.335Z,19.25
2023-04-10T19:50:22.654Z,2.50
2023-04-10T19:52:24.634Z,18.50
2023-04-10T19:54:26.354Z,18.50
2023-04-10T19:56:28.287Z,20.25
2023-04-10T19:58:39.930Z,19.75
2023-04-10T20:00:43.156Z,13.75
2023-04-10T20:02:44.866Z,13.75
2023-04-10T20:04:49.044Z,15.00
2023-04-10T20:06:50.621Z,14.25
2023-04-10T20:08:52.363Z,18.50
2023-04-10T20:10:56.086Z,17.75
2023-04-10T20:12:59.052Z,20.25
2023-04-10T20:15:01.228Z,18.00
2023-04-10T20:17:02.913Z,17.75
2023-04-10T20:19:05.792Z,16.00
2023-04-10T20:21:09.443Z,14.00
2023-04-10T20:23:11.477Z,15.50
2023-04-10T20:25:13.139Z,16.00
2023-04-10T20:27:15.517Z,14.50
2023-04-10T20:29:17.574Z,16.50
2023-04-10T20:31:19.536Z,14.50
2023-04-10T20:33:21.716Z,14.50
2023-04-10T20:35:23.760Z,10.75
2023-04-10T20:37:26.809Z,16.00
2023-04-10T20:39:28.649Z,15.00
2023-04-10T20:41:30.257Z,14.25
2023-04-10T20:43:32.532Z,6.00
2023-04-10T20:45:34.622Z,17.75
2023-04-10T20:47:36.684Z,12.50
2023-04-10T20:49:38.283Z,14.50
2023-04-10T20:51:40.092Z,14.75
2023-04-10T20:53:43.233Z,12.25
2023-04-10T20:55:44.812Z,15.75
2023-04-10T20:57:46.634Z,10.25
2023-04-10T20:59:48.486Z,10.00
2023-04-10T21:01:50.190Z,13.00
2023-04-10T21:03:52.054Z,9.50
2023-04-10T21:05:54.172Z,12.75
2023-04-10T21:07:56.343Z,12.25
2023-04-10T21:09:59.401Z,9.50
2023-04-10T21:12:01.085Z,6.00
2023-04-10T21:14:02.699Z,13.75
2023-04-10T21:16:05.163Z,13.50
2023-04-10T21:18:06.842Z,11.25
2023-04-10T21:20:09.433Z,14.00
2023-04-10T21:22:11.229Z,16.00
2023-04-10T21:24:12.915Z,15.50
2023-04-10T21:26:16.322Z,11.00
2023-04-10T21:28:19.080Z,17.00
2023-04-10T21:30:20.940Z,13.75
2023-04-10T21:32:22.708Z,10.50
2023-04-10T21:34:24.593Z,15.00
2023-04-10T21:36:26.204Z,15.25
2023-04-10T21:38:28.005Z,14.25
2023-04-10T21:40:29.657Z,13.50
2023-04-10T21:42:33.307Z,11.00
2023-04-10T21:44:34.966Z,13.50
2023-04-10T21:46:36.804Z,14.75
2023-04-10T21:48:38.879Z,12.50
2023-04-10T21:50:40.647Z,15.00
2023-04-10T21:52:42.268Z,11.75
2023-04-10T21:54:44.232Z,13.75
2023-04-10T21:56:46.050Z,12.75
2023-04-10T21:58:49.578Z,10.25
2023-04-10T22:00:51.774Z,16.25
2023-04-10T22:02:53.886Z,13.00
2023-04-10T22:04:55.562Z,14.25
2023-04-10T22:06:57.356Z,14.00
2023-04-10T22:08:59.188Z,13.50
2023-04-10T22:11:01.130Z,16.00
2023-04-10T22:13:02.779Z,15.00
2023-04-10T22:15:07.627Z,14.75
2023-04-10T22:17:09.561Z,15.00
2023-04-10T22:19:11.545Z,9.75
2023-04-10T22:21:13.511Z,13.75
2023-04-10T22:23:15.128Z,14.75
2023-04-10T22:25:17.158Z,14.25
2023-04-10T22:27:18.748Z,14.00
2023-04-10T22:29:20.387Z,17.00
2023-04-10T22:31:23.473Z,13.00
2023-04-10T22:33:25.406Z,14.75
2023-04-10T22:35:27.109Z,13.25
2023-04-10T22:37:29.002Z,12.50
2023-04-10T22:39:30.849Z,16.00
2023-04-10T22:41:33.288Z,15.25
2023-04-10T22:43:35.099Z,14.00
2023-04-10T22:45:36.957Z,15.25
2023-04-10T22:47:40.187Z,15.75
2023-04-10T22:49:42.234Z,14.50
2023-04-10T22:51:44.078Z,16.00
2023-04-10T22:53:46.305Z,12.25
2023-04-10T22:55:48.405Z,13.75
2023-04-10T22:57:50.010Z,19.50
2023-04-10T22:59:51.607Z,15.00
2023-04-10T23:01:53.547Z,12.75
2023-04-10T23:03:57.115Z,15.75
2023-04-10T23:05:58.663Z,17.75
2023-04-10T23:08:00.253Z,18.50
2023-04-10T23:10:02.112Z,13.00
2023-04-10T23:12:04.025Z,16.50
2023-04-10T23:14:05.996Z,15.00
2023-04-10T23:16:08.980Z,16.75
2023-04-10T23:18:10.935Z,13.50
2023-04-10T23:20:14.265Z,14.25
2023-04-10T23:22:15.916Z,12.50
2023-04-10T23:24:17.775Z,14.75
2023-04-10T23:26:20.496Z,16.50
2023-04-10T23:28:22.108Z,16.50
2023-04-10T23:30:24.180Z,15.25
2023-04-10T23:32:26.086Z,10.50
2023-04-10T23:34:27.696Z,12.00
2023-04-10T23:36:30.648Z,11.00
2023-04-10T23:38:32.754Z,16.00
2023-04-10T23:40:34.758Z,17.00
2023-04-10T23:42:36.611Z,16.50
2023-04-10T23:44:38.770Z,14.25
2023-04-10T23:46:40.381Z,17.00
2023-04-10T23:48:41.999Z,15.50
2023-04-10T23:50:43.614Z,18.75
2023-04-10T23:52:49.705Z,14.00
2023-04-10T23:54:51.357Z,14.25
2023-04-10T23:56:53.163Z,17.75
2023-04-10T23:58:55.415Z,16.25
